Terminal Aerodrome Forecast
Issued by NWS

Home | Current Version | Previous Version | Graphics & Text | Print | Product List | Glossary On
Versions: 1 2 3 4 5 6 7 8 9 10 11 12 13 14
667
FTUS43 KEAX 132338
TAFSTJ
TAF
KSTJ 132338Z 1400/1424 12011KT P6SM OVC060
     FM140800 13013G21KT P6SM OVC025
      TEMPO 1410/1414 -FZDZ BKN015
     FM141500 19013KT P6SM BKN020
     FM141800 27012KT P6SM SCT030=

USA.gov is the U.S. government's official web portal to all federal, state and local government web resources and services.